Union Grove, AL (35175)

5:06 PM CST on February 09, 2016 (GMT -0600)
Allens Cross Rd | | Change Station
CLOSE
Current Station
Personal Weather Station
Location: Union Grove, AL
Elevation: 1003 ft
Nearby Weather Stations
Active Advisory: Winter Weather Advisory

Elev 1003 ft 34.43 °N, 86.53 °W | Updated 16 seconds ago

Snow
Snow
27.4 °F
Feels Like 21 °F
N
5.8
Wind Variable Wind from NW
Gusts 0.0 mph

Today
High -- | Low -- °F
--% Chance of Precip.
Yesterday
High -- | Low -- °F
Precip. -- in
Pressure 29.96 in
Visibility 10.0 miles
Clouds Scattered Clouds 2100 ft
Mostly Cloudy 5000 ft
Overcast 9000 ft
Windchill 21 °F
Dew Point 22 °F
Humidity 81%
Rainfall 0.00 in
Snow Depth Not available.
6:37 AM 5:23 PM
New Moon, 2% visible
METAR K8A0 092255Z AUTO 34009G14KT 10SM SCT021 BKN050 OVC090 M01/M03 A2996 RMK AO2
Pressure 29.96 in
Visibility 10.0 miles
Clouds Scattered Clouds 2100 ft
Mostly Cloudy 5000 ft
Overcast 9000 ft
Windchill 21 °F
Dew Point 22 °F
Humidity 81%
Rainfall 0.00 in
Snow Depth Not available.
6:37 AM 5:23 PM
New Moon, 2% visible
METAR K8A0 092255Z AUTO 34009G14KT 10SM SCT021 BKN050 OVC090 M01/M03 A2996 RMK AO2

10-Day Weather Forecast

Almanac

Astronomy

Feb. 09, 2016 Rise Set
Actual Time
Civil Twilight
Nautical Twilight
Astronomical Twilight
Moon
Length of Visible Light
Length of Day
Tomorrow will be .
, % of the Moon is Illuminated

Today's Extremes

State Highs State Lows

Community

WunderPhotos

Upload Photos

1,891,728 photos uploaded!

WunderBlog® & News

Nearby

Air Quality

  Air Quality AQ Index Pollutant
Not available.

Snow Depth

Station Depth Elevation

Earthquake Activity

City Distance Mag. Time & Date
Minimum magnitude displayed is 2.5.

Coastal Water Temperatures

Place Temperature

Stations

Nearby Weather Stations

Station Location Temp. Windchill Dew Point Humidity Wind Precip. Elev Updated Type
                   

Watches & Warnings

Winter Weather Advisory
Issued: 1:54 PM CST Feb. 9, 2016 – National Weather Service

... Winter Weather Advisory in effect until midnight CST tonight...

The National Weather Service in Huntsville has issued a Winter
Weather Advisory for Marshall County... which is in effect until
midnight CST tonight.

* Accumulations... additional accumulations around one half inch up to
one inch are possible in Marshall County... especially over
northwestern portions of the County from Morgan City to Grant and
in the higher terrain... through the early evening.

* Impacts... motorists should plan their travels accordingly and
be prepared to encounter some slippery spots on elevated
bridges and overpasses and secondary roads.

Precautionary/preparedness actions...

A Winter Weather Advisory for snow means that periods of snow
will cause primarily travel difficulties. Be prepared for snow
covered roads and limited visibilities... and use caution while
driving.